createdAt,value
2019-05-13T00:00:14.966Z,7.80
2019-05-13T00:02:43.931Z,7.80
2019-05-13T00:05:14.644Z,7.80
2019-05-13T00:07:43.897Z,7.70
2019-05-13T00:10:14.678Z,7.60
2019-05-13T00:12:44.761Z,7.60
2019-05-13T00:15:14.194Z,7.50
2019-05-13T00:17:44.713Z,7.50
2019-05-13T00:20:14.117Z,7.40
2019-05-13T00:22:44.620Z,7.40
2019-05-13T00:25:14.582Z,7.30
2019-05-13T00:27:44.374Z,7.30
2019-05-13T00:30:14.521Z,7.40
2019-05-13T00:32:44.529Z,7.30
2019-05-13T00:35:14.288Z,7.30
2019-05-13T00:37:44.356Z,7.20
2019-05-13T00:40:14.455Z,7.20
2019-05-13T00:42:44.278Z,7.20
2019-05-13T00:45:14.558Z,7.10
2019-05-13T00:47:43.786Z,7.10
2019-05-13T00:50:14.318Z,7.00
2019-05-13T00:52:44.839Z,6.90
2019-05-13T00:55:14.732Z,6.90
2019-05-13T00:57:43.819Z,6.90
2019-05-13T01:00:14.029Z,6.80
2019-05-13T01:02:44.718Z,6.80
2019-05-13T01:05:14.748Z,6.70
2019-05-13T01:07:44.404Z,6.70
2019-05-13T01:10:13.539Z,6.80
2019-05-13T01:12:44.113Z,6.80
2019-05-13T01:15:13.449Z,6.80
2019-05-13T01:17:44.478Z,6.80
2019-05-13T01:20:14.450Z,6.80
2019-05-13T01:22:44.134Z,6.70
2019-05-13T01:25:14.544Z,6.70
2019-05-13T01:27:44.303Z,6.60
2019-05-13T01:30:13.585Z,6.60
2019-05-13T01:32:44.511Z,6.60
2019-05-13T01:35:14.627Z,6.60
2019-05-13T01:37:45.923Z,6.60
2019-05-13T01:40:13.634Z,6.60
2019-05-13T01:42:44.309Z,6.50
2019-05-13T01:45:13.821Z,6.50
2019-05-13T01:47:43.985Z,6.50
2019-05-13T01:50:14.220Z,6.50
2019-05-13T01:52:44.598Z,6.50
2019-05-13T01:55:14.527Z,6.50
2019-05-13T01:57:44.307Z,6.40
2019-05-13T02:00:14.410Z,6.30
2019-05-13T02:02:44.463Z,6.30
2019-05-13T02:05:14.127Z,6.20
2019-05-13T02:07:54.483Z,6.20
2019-05-13T02:10:15.641Z,6.10
2019-05-13T02:12:44.737Z,6.10
2019-05-13T02:15:14.719Z,6.10
2019-05-13T02:17:44.707Z,6.10
2019-05-13T02:20:14.971Z,6.10
2019-05-13T02:22:44.453Z,6.10
2019-05-13T02:25:13.985Z,6.00
2019-05-13T02:27:44.081Z,6.00
2019-05-13T02:30:16.307Z,5.90
2019-05-13T02:32:43.547Z,5.90
2019-05-13T02:35:13.948Z,5.80
2019-05-13T02:37:43.311Z,5.80
2019-05-13T02:40:13.457Z,5.80
2019-05-13T02:42:43.683Z,5.80
2019-05-13T02:45:12.903Z,5.80
2019-05-13T02:47:44.244Z,5.70
2019-05-13T02:50:13.421Z,5.70
2019-05-13T02:52:44.354Z,5.60
2019-05-13T02:55:12.957Z,5.60
2019-05-13T02:57:43.740Z,5.60
2019-05-13T03:00:13.219Z,5.60
2019-05-13T03:02:43.904Z,5.60
2019-05-13T03:05:13.650Z,5.50
2019-05-13T03:07:43.498Z,5.50
2019-05-13T03:10:13.545Z,5.50
2019-05-13T03:12:42.834Z,5.40
2019-05-13T03:15:13.296Z,5.40
2019-05-13T03:17:53.190Z,5.40
2019-05-13T03:20:23.002Z,5.40
2019-05-13T03:22:52.808Z,5.30
2019-05-13T03:25:22.666Z,5.30
2019-05-13T03:27:53.992Z,5.30
2019-05-13T03:30:25.668Z,5.30
2019-05-13T03:33:00.606Z,5.30
2019-05-13T03:35:26.506Z,5.20
2019-05-13T03:37:53.028Z,5.20
2019-05-13T03:40:23.090Z,5.20
2019-05-13T03:42:53.784Z,5.20
2019-05-13T03:45:24.602Z,5.20
2019-05-13T03:47:55.595Z,5.20
2019-05-13T03:50:24.578Z,5.10
2019-05-13T03:52:53.007Z,5.00
2019-05-13T03:55:23.158Z,5.00
2019-05-13T03:57:53.376Z,5.00
2019-05-13T04:00:23.494Z,5.00
2019-05-13T04:02:53.325Z,4.90
2019-05-13T04:05:23.160Z,4.90
2019-05-13T04:07:52.723Z,4.90
2019-05-13T04:10:22.953Z,4.90
2019-05-13T04:12:52.940Z,4.90
2019-05-13T04:15:23.637Z,4.80
2019-05-13T04:17:53.039Z,4.80
2019-05-13T04:20:23.042Z,4.80
2019-05-13T04:22:53.149Z,4.80
2019-05-13T04:25:23.333Z,4.80
2019-05-13T04:27:53.609Z,4.90
2019-05-13T04:30:22.932Z,4.90
2019-05-13T04:32:53.769Z,5.00
2019-05-13T04:35:23.685Z,5.20
2019-05-13T04:37:53.120Z,5.20
2019-05-13T04:40:23.098Z,5.30
2019-05-13T04:42:53.586Z,5.40
2019-05-13T04:45:23.808Z,5.40
2019-05-13T04:47:53.021Z,5.50
2019-05-13T04:50:22.589Z,5.50
2019-05-13T04:52:52.616Z,5.60
2019-05-13T04:55:22.872Z,5.80
2019-05-13T04:57:53.321Z,5.90
2019-05-13T05:00:49.631Z,5.90
2019-05-13T05:03:32.873Z,6.00
2019-05-13T05:05:56.806Z,6.10
2019-05-13T05:09:03.179Z,6.20
2019-05-13T05:12:02.333Z,6.40
2019-05-13T05:14:41.814Z,6.50
2019-05-13T05:17:35.317Z,6.70
2019-05-13T05:20:23.151Z,6.80
2019-05-13T05:23:18.628Z,6.80
2019-05-13T05:25:56.155Z,6.80
2019-05-13T05:28:51.892Z,6.80
2019-05-13T05:31:43.806Z,6.80
2019-05-13T05:34:33.672Z,6.90
2019-05-13T05:37:23.387Z,7.10
2019-05-13T05:39:54.864Z,7.20
2019-05-13T05:42:24.816Z,7.30
2019-05-13T05:44:55.106Z,7.30
2019-05-13T05:47:26.804Z,7.30
2019-05-13T05:49:56.398Z,7.30
2019-05-13T05:52:26.628Z,7.40
2019-05-13T05:54:55.657Z,7.50
2019-05-13T05:57:25.669Z,7.70
2019-05-13T05:59:55.627Z,7.80
2019-05-13T06:02:26.989Z,8.00
2019-05-13T06:04:57.172Z,8.10
2019-05-13T06:07:25.555Z,8.20
2019-05-13T06:09:53.960Z,8.30
2019-05-13T06:12:22.856Z,8.30
2019-05-13T06:14:52.489Z,8.30
2019-05-13T06:17:21.917Z,8.30
2019-05-13T06:19:51.302Z,8.30
2019-05-13T06:22:21.633Z,8.30
2019-05-13T06:24:52.000Z,8.30
2019-05-13T06:27:21.340Z,8.40
2019-05-13T06:29:52.638Z,8.40
2019-05-13T06:32:25.484Z,8.60
2019-05-13T06:34:52.506Z,8.80
2019-05-13T06:37:21.782Z,8.90
2019-05-13T06:39:51.250Z,8.90
2019-05-13T06:42:22.037Z,8.90
2019-05-13T06:44:51.416Z,9.10
2019-05-13T06:47:21.958Z,9.30
2019-05-13T06:49:51.611Z,9.60
2019-05-13T06:52:21.235Z,9.60
2019-05-13T06:54:51.972Z,9.50
2019-05-13T06:57:22.001Z,9.50
2019-05-13T06:59:52.312Z,9.40
2019-05-13T07:02:21.576Z,9.40
2019-05-13T07:04:51.660Z,9.40
2019-05-13T07:07:21.915Z,9.50
2019-05-13T07:09:51.692Z,9.50
2019-05-13T07:12:21.950Z,9.60
2019-05-13T07:14:51.851Z,9.60
2019-05-13T07:17:22.285Z,9.60
2019-05-13T07:19:51.726Z,9.70
2019-05-13T07:22:22.942Z,9.90
2019-05-13T07:24:51.897Z,10.10
2019-05-13T07:27:22.846Z,10.10
2019-05-13T07:29:51.459Z,10.00
2019-05-13T07:32:22.145Z,10.10
2019-05-13T07:34:53.150Z,10.10
2019-05-13T07:37:21.894Z,10.20
2019-05-13T07:39:53.027Z,10.30
2019-05-13T07:42:22.247Z,10.40
2019-05-13T07:44:52.163Z,10.40
2019-05-13T07:47:22.301Z,10.60
2019-05-13T07:49:51.542Z,10.80
2019-05-13T07:52:22.523Z,11.00
2019-05-13T07:54:52.100Z,11.10
2019-05-13T07:57:21.447Z,11.20
2019-05-13T07:59:52.246Z,11.40
2019-05-13T08:02:21.719Z,11.30
2019-05-13T08:04:52.871Z,11.50
2019-05-13T08:07:22.619Z,11.70
2019-05-13T08:09:51.778Z,11.90
2019-05-13T08:12:21.627Z,12.00
2019-05-13T08:14:52.150Z,11.90
2019-05-13T08:17:22.437Z,12.10
2019-05-13T08:19:52.043Z,12.10
2019-05-13T08:22:22.100Z,12.00
2019-05-13T08:24:53.802Z,11.80
2019-05-13T08:27:29.802Z,11.90
2019-05-13T08:29:52.153Z,12.10
2019-05-13T08:32:22.088Z,12.30
2019-05-13T08:34:52.493Z,12.30
2019-05-13T08:37:21.649Z,12.40
2019-05-13T08:39:52.164Z,12.40
2019-05-13T08:42:23.410Z,12.50
2019-05-13T08:44:52.249Z,12.60
2019-05-13T08:47:22.358Z,12.50
2019-05-13T08:49:52.009Z,12.40
2019-05-13T08:52:21.899Z,12.30
2019-05-13T08:54:52.469Z,12.40
2019-05-13T08:57:22.136Z,12.50
2019-05-13T08:59:51.707Z,12.70
2019-05-13T09:02:22.175Z,12.70
2019-05-13T09:04:51.403Z,12.50
2019-05-13T09:07:23.907Z,12.50
2019-05-13T09:09:51.241Z,12.60
2019-05-13T09:12:29.518Z,12.70
2019-05-13T09:14:52.209Z,12.80
2019-05-13T09:17:21.304Z,12.90
2019-05-13T09:19:51.975Z,12.90
2019-05-13T09:22:21.352Z,13.10
2019-05-13T09:24:52.805Z,13.30
2019-05-13T09:27:22.523Z,13.50
2019-05-13T09:29:51.815Z,13.80
2019-05-13T09:32:21.527Z,13.80
2019-05-13T09:34:52.568Z,13.80
2019-05-13T09:37:22.433Z,13.90
2019-05-13T09:39:51.745Z,13.90
2019-05-13T09:42:21.632Z,14.00
2019-05-13T09:44:52.477Z,14.10
2019-05-13T09:47:21.696Z,14.20
2019-05-13T09:49:50.372Z,14.40
2019-05-13T09:52:18.792Z,14.50
2019-05-13T09:54:47.266Z,14.50
2019-05-13T09:57:15.661Z,14.30
2019-05-13T09:59:44.068Z,14.30
2019-05-13T10:02:12.782Z,14.50
2019-05-13T10:04:43.665Z,14.60
2019-05-13T10:07:12.405Z,14.50
2019-05-13T10:09:42.957Z,14.70
2019-05-13T10:12:12.303Z,14.90
2019-05-13T10:14:40.845Z,14.90
2019-05-13T10:17:09.248Z,15.00
2019-05-13T10:19:38.280Z,15.00
2019-05-13T10:22:06.758Z,15.10
2019-05-13T10:24:35.202Z,15.10
2019-05-13T10:27:04.014Z,15.20
2019-05-13T10:29:33.149Z,15.30
2019-05-13T10:32:03.152Z,15.30
2019-05-13T10:34:33.049Z,15.50
2019-05-13T10:37:02.551Z,15.40
2019-05-13T10:39:31.431Z,15.50
2019-05-13T10:42:03.027Z,15.60
2019-05-13T10:44:30.129Z,15.80
2019-05-13T10:46:58.589Z,16.10
2019-05-13T10:49:27.011Z,16.40
2019-05-13T10:51:55.574Z,16.70
2019-05-13T10:54:24.347Z,17.00
2019-05-13T10:56:58.922Z,17.30
2019-05-13T10:59:23.271Z,17.20
2019-05-13T11:01:52.254Z,17.20
2019-05-13T11:04:22.080Z,17.30
2019-05-13T11:06:52.590Z,17.50
2019-05-13T11:09:22.151Z,17.50
2019-05-13T11:11:52.944Z,17.40
2019-05-13T11:14:21.949Z,17.50
2019-05-13T11:16:52.317Z,17.70
2019-05-13T11:19:22.953Z,17.80
2019-05-13T11:21:51.697Z,17.70
2019-05-13T11:24:22.760Z,17.80
2019-05-13T11:26:52.345Z,18.00
2019-05-13T11:29:23.098Z,18.30
2019-05-13T11:31:52.345Z,18.60
2019-05-13T11:34:22.112Z,18.80
2019-05-13T11:36:53.114Z,18.80
2019-05-13T11:39:21.851Z,18.70
2019-05-13T11:41:50.756Z,18.80
2019-05-13T11:44:19.203Z,18.70
2019-05-13T11:46:47.587Z,18.50
2019-05-13T11:49:15.972Z,18.60
2019-05-13T11:51:44.676Z,18.70
2019-05-13T11:54:14.053Z,18.60
2019-05-13T11:56:49.228Z,18.50
2019-05-13T11:59:14.040Z,18.80
2019-05-13T12:01:42.984Z,19.10
2019-05-13T12:04:12.939Z,19.50
2019-05-13T12:06:47.916Z,19.50
2019-05-13T12:09:13.184Z,19.50
2019-05-13T12:11:41.888Z,19.40
2019-05-13T12:14:37.495Z,19.60
2019-05-13T12:16:42.416Z,19.70
2019-05-13T12:19:11.786Z,19.80
2019-05-13T12:21:45.860Z,19.80
2019-05-13T12:24:11.565Z,19.40
2019-05-13T12:26:43.110Z,19.10
2019-05-13T12:29:17.893Z,18.90
2019-05-13T12:31:40.528Z,19.00
2019-05-13T12:34:12.697Z,18.90
2019-05-13T12:36:42.437Z,19.20
2019-05-13T12:41:42.793Z,20.60
2019-05-13T12:44:12.708Z,21.70
2019-05-13T12:46:41.518Z,22.50
2019-05-13T12:49:14.171Z,22.90
2019-05-13T12:51:43.857Z,23.40
2019-05-13T12:54:13.525Z,24.00
2019-05-13T12:56:42.510Z,24.00
2019-05-13T12:59:13.271Z,23.20
2019-05-13T13:01:41.644Z,23.00
2019-05-13T13:04:12.306Z,23.90
2019-05-13T13:06:44.851Z,24.70
2019-05-13T13:09:12.790Z,26.30
2019-05-13T13:11:43.561Z,27.20
2019-05-13T13:14:15.098Z,27.20
2019-05-13T13:16:42.347Z,27.10
2019-05-13T13:19:14.529Z,26.30
2019-05-13T13:21:41.387Z,25.80
2019-05-13T13:24:11.698Z,26.30
2019-05-13T13:26:42.495Z,25.70
2019-05-13T13:29:10.052Z,25.50
2019-05-13T13:31:42.743Z,26.00
2019-05-13T13:34:13.556Z,26.70
2019-05-13T13:36:39.038Z,27.60
2019-05-13T13:39:08.673Z,28.90
2019-05-13T13:41:37.073Z,29.70
2019-05-13T13:44:07.106Z,29.80
2019-05-13T13:46:42.461Z,29.70
2019-05-13T13:49:06.097Z,30.60
2019-05-13T13:51:34.685Z,29.80
2019-05-13T13:54:03.991Z,28.10
2019-05-13T13:56:33.188Z,27.30
2019-05-13T13:59:04.365Z,27.00
2019-05-13T14:01:33.309Z,26.60
2019-05-13T14:04:03.788Z,26.20
2019-05-13T14:06:33.067Z,19.70
2019-05-13T14:07:22.823Z,25.40
2019-05-13T14:09:02.157Z,25.70
2019-05-13T14:11:32.978Z,27.20
2019-05-13T14:14:02.145Z,28.90
2019-05-13T14:16:34.900Z,29.90
2019-05-13T14:19:00.990Z,30.60
2019-05-13T14:21:29.388Z,31.60
2019-05-13T14:23:57.879Z,31.40
2019-05-13T14:26:26.283Z,30.20
2019-05-13T14:28:54.740Z,29.70
2019-05-13T14:31:23.448Z,27.80
2019-05-13T14:33:52.194Z,27.20
2019-05-13T14:36:23.107Z,28.20
2019-05-13T14:38:52.752Z,28.70
2019-05-13T14:41:21.961Z,27.60
2019-05-13T14:43:51.634Z,27.00
2019-05-13T14:46:25.224Z,25.50
2019-05-13T14:48:50.420Z,24.30
2019-05-13T14:51:19.037Z,23.80
2019-05-13T14:53:47.459Z,23.80
2019-05-13T14:56:15.853Z,23.80
2019-05-13T14:58:44.241Z,22.80
2019-05-13T15:01:18.849Z,22.00
2019-05-13T15:03:43.011Z,21.60
2019-05-13T15:06:12.033Z,20.90
2019-05-13T15:08:42.146Z,20.40
2019-05-13T15:11:12.543Z,19.80
2019-05-13T15:13:42.524Z,19.10
2019-05-13T15:16:11.572Z,18.70
2019-05-13T15:18:41.609Z,18.50
2019-05-13T15:21:12.118Z,18.40
2019-05-13T15:23:42.251Z,18.40
2019-05-13T15:26:11.707Z,18.20
2019-05-13T15:28:42.187Z,18.00
2019-05-13T15:31:11.532Z,17.90
2019-05-13T15:33:41.615Z,17.80
2019-05-13T15:36:11.946Z,17.80
2019-05-13T15:38:41.432Z,17.90
2019-05-13T15:41:13.027Z,17.90
2019-05-13T15:43:41.872Z,17.80
2019-05-13T15:46:12.440Z,17.80
2019-05-13T15:48:42.209Z,17.90
2019-05-13T15:51:11.441Z,17.90
2019-05-13T15:53:39.977Z,17.60
2019-05-13T15:56:08.370Z,17.50
2019-05-13T15:58:40.981Z,17.60
2019-05-13T16:01:06.938Z,17.50
2019-05-13T16:03:35.326Z,17.50
2019-05-13T16:06:04.299Z,17.50
2019-05-13T16:08:32.713Z,17.50
2019-05-13T16:11:02.128Z,17.50
2019-05-13T16:13:31.297Z,17.50
2019-05-13T16:16:01.531Z,17.40
2019-05-13T16:18:31.643Z,17.40
2019-05-13T16:21:01.734Z,17.30
2019-05-13T16:23:32.415Z,17.30
2019-05-13T16:26:01.846Z,17.40
2019-05-13T16:28:32.546Z,17.30
2019-05-13T16:31:02.260Z,17.10
2019-05-13T16:33:31.324Z,17.10
2019-05-13T16:36:02.262Z,17.10
2019-05-13T16:38:32.610Z,17.10
2019-05-13T16:41:00.340Z,17.00
2019-05-13T16:43:29.085Z,16.90
2019-05-13T16:45:57.494Z,16.90
2019-05-13T16:48:25.965Z,16.90
2019-05-13T16:50:54.424Z,16.90
2019-05-13T16:53:25.804Z,16.70
2019-05-13T16:55:52.993Z,16.70
2019-05-13T16:58:24.883Z,16.70
2019-05-13T17:00:52.851Z,16.60
2019-05-13T17:03:21.781Z,16.70
2019-05-13T17:05:51.382Z,16.70
2019-05-13T17:08:19.898Z,16.60
2019-05-13T17:10:48.317Z,16.60
2019-05-13T17:13:17.817Z,16.60
2019-05-13T17:15:46.214Z,16.60
2019-05-13T17:18:21.926Z,16.50
2019-05-13T17:20:52.077Z,16.50
2019-05-13T17:23:20.926Z,16.50
2019-05-13T17:25:51.795Z,16.40
2019-05-13T17:28:21.848Z,16.50
2019-05-13T17:30:51.790Z,16.40
2019-05-13T17:33:22.872Z,16.30
2019-05-13T17:35:49.889Z,16.20
2019-05-13T17:38:18.664Z,16.20
2019-05-13T17:40:49.942Z,16.20
2019-05-13T17:43:17.264Z,16.20
2019-05-13T17:45:46.048Z,16.20
2019-05-13T17:48:25.963Z,16.20
2019-05-13T17:50:44.573Z,16.20
2019-05-13T17:53:13.013Z,16.10
2019-05-13T17:55:41.407Z,16.00
2019-05-13T17:58:11.673Z,16.00
2019-05-13T18:00:41.541Z,15.80
2019-05-13T18:03:11.342Z,15.80
2019-05-13T18:05:41.999Z,15.80
2019-05-13T18:08:11.269Z,15.70
2019-05-13T18:10:41.853Z,15.70
2019-05-13T18:13:12.440Z,15.70
2019-05-13T18:15:40.156Z,15.60
2019-05-13T18:18:08.565Z,15.60
2019-05-13T18:20:36.969Z,15.60
2019-05-13T18:23:05.448Z,15.60
2019-05-13T18:25:33.902Z,15.60
2019-05-13T18:28:02.315Z,15.50
2019-05-13T18:30:31.814Z,15.40
2019-05-13T18:33:01.234Z,15.40
2019-05-13T18:35:31.506Z,15.30
2019-05-13T18:38:01.322Z,15.20
2019-05-13T18:40:31.516Z,15.20
2019-05-13T18:43:01.964Z,15.10
2019-05-13T18:45:30.298Z,15.00
2019-05-13T18:47:58.905Z,15.00
2019-05-13T18:50:27.292Z,15.00
2019-05-13T18:52:55.789Z,14.90
2019-05-13T18:55:24.308Z,14.90
2019-05-13T18:57:52.766Z,14.80
2019-05-13T19:00:21.890Z,14.80
2019-05-13T19:02:50.468Z,14.70
2019-05-13T19:05:21.069Z,14.60
2019-05-13T19:07:51.123Z,14.60
2019-05-13T19:10:19.132Z,14.50
2019-05-13T19:12:47.537Z,14.50
2019-05-13T19:15:17.188Z,14.40
2019-05-13T19:17:45.587Z,14.40
2019-05-13T19:20:14.041Z,14.40
2019-05-13T19:22:42.518Z,14.30
2019-05-13T19:25:11.970Z,14.30
2019-05-13T19:27:41.317Z,14.30
2019-05-13T19:30:12.106Z,14.20
2019-05-13T19:32:41.662Z,14.20
2019-05-13T19:35:11.635Z,14.10
2019-05-13T19:37:42.495Z,14.20
2019-05-13T19:40:12.720Z,14.10
2019-05-13T19:42:41.828Z,14.10
2019-05-13T19:45:10.813Z,14.10
2019-05-13T19:47:41.547Z,14.10
2019-05-13T19:50:09.473Z,14.00
2019-05-13T19:52:37.997Z,13.90
2019-05-13T19:55:06.932Z,13.90
2019-05-13T19:57:35.328Z,13.80
2019-05-13T20:00:10.252Z,13.70
2019-05-13T20:02:37.929Z,13.60
2019-05-13T20:05:07.359Z,13.60
2019-05-13T20:07:35.825Z,13.50
2019-05-13T20:10:06.564Z,13.40
2019-05-13T20:12:34.980Z,13.40
2019-05-13T20:15:05.491Z,13.30
2019-05-13T20:17:34.021Z,13.30
2019-05-13T20:20:02.414Z,13.20
2019-05-13T20:22:31.293Z,13.10
2019-05-13T20:24:59.819Z,13.10
2019-05-13T20:27:28.242Z,13.00
2019-05-13T20:29:56.680Z,13.00
2019-05-13T20:32:25.361Z,13.00
2019-05-13T20:34:53.740Z,12.90
2019-05-13T20:37:22.163Z,12.90
2019-05-13T20:39:51.496Z,12.80
2019-05-13T20:42:20.073Z,12.70
2019-05-13T20:44:51.315Z,12.70
2019-05-13T20:47:21.004Z,12.60
2019-05-13T20:49:59.125Z,12.50
2019-05-13T20:52:19.386Z,12.50
2019-05-13T20:54:51.175Z,12.40
2019-05-13T20:57:22.243Z,12.30
2019-05-13T20:59:51.627Z,12.20
2019-05-13T21:02:22.114Z,12.10
2019-05-13T21:04:50.709Z,12.00
2019-05-13T21:07:19.113Z,11.90
2019-05-13T21:09:47.521Z,11.80
2019-05-13T21:12:15.923Z,11.70
2019-05-13T21:14:44.388Z,11.70
2019-05-13T21:17:12.814Z,11.70
2019-05-13T21:19:42.904Z,11.60
2019-05-13T21:22:11.826Z,11.50
2019-05-13T21:24:41.264Z,11.50
2019-05-13T21:27:11.720Z,11.40
2019-05-13T21:29:41.431Z,11.40
2019-05-13T21:32:11.762Z,11.30
2019-05-13T21:34:40.374Z,11.30
2019-05-13T21:37:08.778Z,11.20
2019-05-13T21:39:37.229Z,11.10
2019-05-13T21:42:05.947Z,11.10
2019-05-13T21:44:34.349Z,11.00
2019-05-13T21:47:02.787Z,10.90
2019-05-13T21:49:31.955Z,10.90
2019-05-13T21:52:00.574Z,10.80
2019-05-13T21:54:33.309Z,10.80
2019-05-13T21:56:59.248Z,10.70
2019-05-13T21:59:27.648Z,10.60
2019-05-13T22:01:56.046Z,10.60
2019-05-13T22:04:24.474Z,10.50
2019-05-13T22:06:52.876Z,10.40
2019-05-13T22:09:22.079Z,10.40
2019-05-13T22:11:51.123Z,10.30
2019-05-13T22:14:19.701Z,10.30
2019-05-13T22:16:48.101Z,10.30
2019-05-13T22:19:16.505Z,10.20
2019-05-13T22:21:44.901Z,10.20
2019-05-13T22:24:14.133Z,10.10
2019-05-13T22:26:42.524Z,10.10
2019-05-13T22:29:10.944Z,10.10
2019-05-13T22:31:39.370Z,10.10
2019-05-13T22:34:07.765Z,10.00
2019-05-13T22:36:36.174Z,9.90
2019-05-13T22:39:06.396Z,9.90
2019-05-13T22:41:34.786Z,9.90
2019-05-13T22:44:03.462Z,9.80
2019-05-13T22:46:32.320Z,9.80
2019-05-13T22:49:01.224Z,9.80
2019-05-13T22:51:31.872Z,9.70
2019-05-13T22:54:00.039Z,9.70
2019-05-13T22:56:28.479Z,9.60
2019-05-13T22:58:56.868Z,9.60
2019-05-13T23:01:25.288Z,9.60
2019-05-13T23:03:53.679Z,9.50
2019-05-13T23:06:22.080Z,9.50
2019-05-13T23:08:50.491Z,9.40
2019-05-13T23:11:18.884Z,9.40
2019-05-13T23:13:47.300Z,9.30
2019-05-13T23:16:15.693Z,9.30
2019-05-13T23:18:44.085Z,9.30
2019-05-13T23:21:12.497Z,9.20
2019-05-13T23:23:41.030Z,9.20
2019-05-13T23:26:11.717Z,9.20
2019-05-13T23:28:41.444Z,9.20
2019-05-13T23:31:12.150Z,9.20
2019-05-13T23:33:41.693Z,9.10
2019-05-13T23:36:11.983Z,9.20
2019-05-13T23:38:41.349Z,9.10
2019-05-13T23:41:11.409Z,9.10
2019-05-13T23:43:40.025Z,9.10
2019-05-13T23:46:08.406Z,9.00
2019-05-13T23:48:36.828Z,9.00
2019-05-13T23:51:05.444Z,9.00
2019-05-13T23:53:33.834Z,9.00
2019-05-13T23:56:02.226Z,9.00
2019-05-13T23:58:32.111Z,8.90
